createdAt,value
2017-12-29T05:09:36.834Z,0.67
2017-12-29T05:12:03.625Z,2.10
2017-12-29T05:14:30.429Z,0.87
2017-12-29T05:16:57.273Z,1.33
2017-12-29T05:19:24.045Z,0.83
2017-12-29T05:21:50.782Z,1.23
2017-12-29T05:24:17.577Z,0.80
2017-12-29T05:26:44.339Z,0.90
2017-12-29T05:29:11.124Z,1.43
2017-12-29T05:31:37.898Z,1.70
2017-12-29T05:34:04.708Z,0.90
2017-12-29T05:36:31.471Z,1.20
2017-12-29T05:38:58.279Z,1.50
2017-12-29T05:41:25.050Z,1.40
2017-12-29T05:43:51.806Z,1.53
2017-12-29T05:46:18.594Z,2.60
2017-12-29T05:48:45.351Z,1.40
2017-12-29T05:51:12.123Z,1.20
2017-12-29T05:53:38.925Z,1.27
2017-12-29T05:56:05.701Z,1.13
2017-12-29T05:58:32.490Z,1.27
2017-12-29T06:00:59.315Z,1.60
2017-12-29T06:03:26.074Z,0.43
2017-12-29T06:05:52.845Z,1.07
2017-12-29T06:08:19.627Z,1.10
2017-12-29T06:10:46.399Z,0.50
2017-12-29T06:13:13.169Z,1.47
2017-12-29T06:15:40.010Z,1.27
2017-12-29T06:18:06.768Z,0.80
2017-12-29T06:20:33.506Z,1.50
2017-12-29T06:23:01.515Z,0.60
2017-12-29T06:25:28.269Z,1.17
2017-12-29T06:27:55.032Z,0.80
2017-12-29T06:30:21.806Z,2.03
2017-12-29T06:32:48.609Z,0.90
2017-12-29T06:35:15.376Z,0.80
2017-12-29T06:37:42.189Z,2.20
2017-12-29T06:40:08.957Z,1.10
2017-12-29T06:42:35.699Z,1.70
2017-12-29T06:45:02.501Z,3.10
2017-12-29T06:47:29.277Z,2.40
2017-12-29T06:49:56.018Z,1.83
2017-12-29T06:52:22.802Z,1.50
2017-12-29T06:54:49.598Z,2.20
2017-12-29T06:57:16.381Z,1.93
2017-12-29T06:59:43.203Z,2.23
2017-12-29T07:02:09.990Z,1.43
2017-12-29T07:04:36.791Z,1.90
2017-12-29T07:07:03.650Z,1.70
2017-12-29T07:09:30.434Z,2.37
2017-12-29T07:11:57.221Z,1.70
2017-12-29T07:14:24.007Z,1.37
2017-12-29T07:16:50.752Z,1.50
2017-12-29T07:19:17.514Z,1.80
2017-12-29T07:21:44.318Z,1.63
2017-12-29T07:24:11.083Z,1.67
2017-12-29T07:26:37.830Z,0.73
2017-12-29T07:29:04.611Z,1.10
2017-12-29T07:31:31.394Z,1.27
2017-12-29T07:33:58.173Z,1.17
2017-12-29T07:36:24.963Z,1.53
2017-12-29T07:38:51.725Z,1.40
2017-12-29T07:41:18.485Z,1.93
2017-12-29T07:43:45.294Z,1.30
2017-12-29T07:46:12.081Z,1.30
2017-12-29T07:48:38.841Z,0.80
2017-12-29T07:51:05.633Z,0.83
2017-12-29T07:53:32.408Z,1.10
2017-12-29T07:55:59.168Z,0.97
2017-12-29T07:58:25.970Z,1.00
2017-12-29T08:00:52.753Z,0.70
2017-12-29T08:03:19.495Z,0.63
2017-12-29T08:05:46.291Z,1.63
2017-12-29T08:08:13.047Z,0.50
2017-12-29T08:10:39.782Z,0.93
2017-12-29T08:13:06.582Z,0.90
2017-12-29T08:15:33.323Z,0.83
2017-12-29T08:18:00.108Z,0.30
2017-12-29T08:20:26.980Z,1.00
2017-12-29T08:22:53.755Z,1.27
2017-12-29T08:25:20.521Z,1.80
2017-12-29T08:27:47.350Z,2.43
2017-12-29T08:30:14.105Z,1.20
2017-12-29T08:32:40.854Z,1.40
2017-12-29T08:35:07.662Z,1.50
2017-12-29T08:37:34.427Z,0.80
2017-12-29T08:40:01.191Z,1.57
2017-12-29T08:42:28.014Z,1.70
2017-12-29T08:44:54.771Z,1.33
2017-12-29T08:47:21.542Z,1.70
2017-12-29T08:49:48.350Z,2.63
2017-12-29T08:52:15.129Z,1.63
2017-12-29T08:54:41.878Z,1.30
2017-12-29T08:57:08.696Z,2.20
2017-12-29T08:59:35.457Z,1.97
2017-12-29T09:02:02.254Z,2.47
2017-12-29T09:04:29.044Z,2.00
2017-12-29T09:06:55.794Z,2.80
2017-12-29T09:09:22.551Z,1.97
2017-12-29T09:11:49.357Z,1.27
2017-12-29T09:14:16.102Z,1.77
2017-12-29T09:16:42.877Z,2.53
2017-12-29T09:19:09.686Z,1.80
2017-12-29T09:21:36.467Z,2.10
2017-12-29T09:24:03.265Z,2.37
2017-12-29T09:26:30.064Z,1.70
2017-12-29T09:28:56.866Z,1.87
2017-12-29T09:31:23.603Z,2.50
2017-12-29T09:33:50.407Z,2.27
2017-12-29T09:36:17.210Z,2.10
2017-12-29T09:38:43.963Z,2.77
2017-12-29T09:41:10.780Z,2.80
2017-12-29T09:43:37.534Z,2.03
2017-12-29T09:46:04.309Z,2.00
2017-12-29T09:48:31.130Z,2.87
2017-12-29T09:50:57.882Z,1.60
2017-12-29T09:53:24.661Z,2.20
2017-12-29T09:55:51.470Z,2.90
2017-12-29T09:58:18.258Z,3.07
2017-12-29T10:00:45.056Z,2.20
2017-12-29T10:03:11.839Z,2.33
2017-12-29T10:05:38.620Z,2.10
2017-12-29T10:08:05.393Z,2.40
2017-12-29T10:10:32.204Z,1.90
2017-12-29T10:12:59.014Z,2.90
2017-12-29T10:15:25.810Z,1.57
2017-12-29T10:17:52.613Z,2.30
2017-12-29T10:20:19.371Z,2.60
2017-12-29T10:22:46.183Z,2.33
2017-12-29T10:25:13.000Z,2.10
2017-12-29T10:27:39.752Z,2.40
2017-12-29T10:30:06.521Z,2.20
2017-12-29T10:32:33.338Z,3.40
2017-12-29T10:35:00.102Z,3.77
2017-12-29T10:37:26.888Z,5.40
2017-12-29T10:39:53.689Z,2.93
2017-12-29T10:42:20.469Z,5.67
2017-12-29T10:44:47.271Z,5.73
2017-12-29T10:47:14.064Z,6.33
2017-12-29T10:49:40.849Z,2.77
2017-12-29T10:52:07.610Z,6.00
2017-12-29T10:54:34.390Z,5.43
2017-12-29T10:57:01.142Z,9.03
2017-12-29T10:59:27.906Z,6.33
2017-12-29T11:01:54.738Z,6.47
2017-12-29T11:04:21.488Z,5.43
2017-12-29T11:06:48.251Z,6.23
2017-12-29T11:09:15.066Z,6.17
2017-12-29T11:11:41.827Z,8.60
2017-12-29T11:14:08.570Z,6.70
2017-12-29T11:16:35.371Z,5.67
2017-12-29T11:19:02.141Z,3.20
2017-12-29T11:21:28.930Z,6.40
2017-12-29T11:23:55.726Z,8.50
2017-12-29T11:26:22.503Z,7.90
2017-12-29T11:28:49.273Z,6.70
2017-12-29T11:31:16.093Z,9.57
2017-12-29T11:33:42.862Z,7.73
2017-12-29T11:36:09.642Z,8.50
2017-12-29T11:38:36.445Z,5.73
2017-12-29T11:41:03.199Z,7.30
2017-12-29T11:43:29.967Z,8.70
2017-12-29T11:45:56.793Z,13.23
2017-12-29T11:48:23.587Z,8.80
2017-12-29T11:50:50.361Z,10.10
2017-12-29T11:53:17.155Z,10.50
2017-12-29T11:55:43.930Z,7.13
2017-12-29T11:58:10.691Z,9.53
2017-12-29T12:00:37.501Z,6.33
2017-12-29T12:03:04.282Z,11.17
2017-12-29T12:05:31.979Z,8.90
2017-12-29T12:07:58.766Z,9.50
2017-12-29T12:10:25.505Z,9.97
2017-12-29T12:12:52.267Z,8.10
2017-12-29T12:15:19.095Z,4.97
2017-12-29T12:17:45.872Z,7.67
2017-12-29T12:20:12.703Z,5.20
2017-12-29T12:22:39.517Z,8.60
2017-12-29T12:25:06.273Z,3.33
2017-12-29T12:27:33.076Z,7.50
2017-12-29T12:29:59.890Z,8.80
2017-12-29T12:32:26.707Z,9.77
2017-12-29T12:34:53.450Z,3.70
2017-12-29T12:37:20.278Z,7.87
2017-12-29T12:39:47.046Z,8.10
2017-12-29T12:42:13.795Z,7.87
2017-12-29T12:44:40.583Z,8.13
2017-12-29T12:47:07.356Z,9.20
2017-12-29T12:49:34.128Z,8.07
2017-12-29T12:52:00.946Z,7.73
2017-12-29T12:54:27.723Z,6.93
2017-12-29T12:56:54.465Z,6.93
2017-12-29T12:59:21.332Z,8.90
2017-12-29T13:01:48.111Z,7.37
2017-12-29T13:04:14.886Z,8.80
2017-12-29T13:06:41.742Z,9.20
2017-12-29T13:09:08.526Z,9.03
2017-12-29T13:11:35.345Z,9.47
2017-12-29T13:14:02.159Z,11.50
2017-12-29T13:16:28.931Z,7.47
2017-12-29T13:18:55.692Z,8.43
2017-12-29T13:21:22.494Z,5.13
2017-12-29T13:23:49.275Z,8.80
2017-12-29T13:26:16.022Z,10.67
2017-12-29T13:28:42.819Z,8.20
2017-12-29T13:31:09.598Z,10.30
2017-12-29T13:33:46.583Z,9.33
2017-12-29T13:36:13.365Z,8.70
2017-12-29T13:38:40.136Z,9.07
2017-12-29T13:41:06.931Z,9.57
2017-12-29T13:43:33.741Z,5.93
2017-12-29T13:46:00.503Z,8.27
2017-12-29T13:48:27.330Z,7.87
2017-12-29T13:50:54.095Z,6.57
2017-12-29T13:53:20.870Z,10.50
2017-12-29T13:55:47.673Z,9.87
2017-12-29T13:58:14.453Z,9.90
2017-12-29T14:00:41.221Z,8.30
2017-12-29T14:03:08.042Z,9.03
2017-12-29T14:05:34.814Z,9.20
2017-12-29T14:08:01.590Z,10.57
2017-12-29T14:10:28.417Z,9.63
2017-12-29T14:12:55.189Z,9.50
2017-12-29T14:15:21.930Z,9.93
2017-12-29T14:17:48.734Z,9.00
2017-12-29T14:20:15.514Z,9.67
2017-12-29T14:22:42.285Z,10.70
2017-12-29T14:25:09.168Z,11.53
2017-12-29T14:27:35.928Z,10.07
2017-12-29T14:30:02.744Z,11.23
2017-12-29T14:32:29.566Z,11.13
2017-12-29T14:34:56.334Z,10.50
2017-12-29T14:37:23.100Z,12.67
2017-12-29T14:39:49.917Z,10.77
2017-12-29T14:42:16.676Z,9.93
2017-12-29T14:44:43.502Z,10.53
2017-12-29T14:47:10.297Z,7.83
2017-12-29T14:49:37.073Z,11.30
2017-12-29T14:52:03.854Z,10.47
2017-12-29T14:54:30.634Z,9.27
2017-12-29T14:56:57.414Z,11.27
2017-12-29T14:59:24.209Z,16.08
2017-12-29T15:01:51.005Z,9.53
2017-12-29T15:04:17.800Z,10.13
2017-12-29T15:06:44.615Z,9.77
2017-12-29T15:09:11.450Z,9.77
2017-12-29T15:11:38.218Z,11.00
2017-12-29T15:14:05.348Z,10.70
2017-12-29T15:16:32.148Z,10.80
2017-12-29T15:18:58.923Z,8.97
2017-12-29T15:21:25.702Z,10.57
2017-12-29T15:23:52.499Z,11.47
2017-12-29T15:26:19.266Z,11.03
2017-12-29T15:28:46.054Z,10.40
2017-12-29T15:31:12.894Z,9.23
2017-12-29T15:33:39.696Z,9.30
2017-12-29T15:36:06.446Z,11.20
2017-12-29T15:38:33.270Z,10.15
2017-12-29T15:41:00.089Z,11.75
2017-12-29T15:43:26.866Z,9.65
2017-12-29T15:45:53.688Z,9.48
2017-12-29T15:48:20.455Z,9.48
2017-12-29T15:50:47.247Z,9.57
2017-12-29T15:53:14.055Z,8.63
2017-12-29T15:55:40.831Z,9.30
2017-12-29T15:58:07.625Z,7.57
2017-12-29T16:00:34.440Z,8.83
2017-12-29T16:03:01.226Z,8.57
2017-12-29T16:05:28.033Z,7.00
2017-12-29T16:07:55.149Z,7.30
2017-12-29T16:10:21.929Z,7.57
2017-12-29T16:12:48.707Z,8.05
2017-12-29T16:15:15.522Z,7.22
2017-12-29T16:17:42.321Z,10.93
2017-12-29T16:20:09.143Z,5.72
2017-12-29T16:22:35.956Z,8.68
2017-12-29T16:25:02.734Z,8.60
2017-12-29T16:27:29.519Z,10.27
2017-12-29T16:29:56.326Z,8.60
2017-12-29T16:32:23.121Z,9.37
2017-12-29T16:34:49.875Z,8.63
2017-12-29T16:37:16.684Z,9.02
2017-12-29T16:39:43.447Z,8.63
2017-12-29T16:42:10.216Z,8.25
2017-12-29T16:44:37.006Z,6.70
2017-12-29T16:47:03.830Z,8.83
2017-12-29T16:49:30.624Z,9.55
2017-12-29T16:51:57.448Z,7.53
2017-12-29T16:54:24.194Z,8.17
2017-12-29T16:56:50.988Z,8.60
2017-12-29T16:59:17.810Z,8.77
2017-12-29T17:01:44.570Z,8.98
2017-12-29T17:04:11.344Z,7.95
2017-12-29T17:06:38.189Z,9.55
2017-12-29T17:09:04.970Z,7.27
2017-12-29T17:11:31.765Z,9.48
2017-12-29T17:13:58.559Z,7.10
2017-12-29T17:16:25.354Z,8.70
2017-12-29T17:18:52.144Z,7.63
2017-12-29T17:21:18.990Z,8.35
2017-12-29T17:23:45.758Z,7.40
2017-12-29T17:26:12.564Z,8.18
2017-12-29T17:28:39.376Z,6.40
2017-12-29T17:31:06.166Z,8.90
2017-12-29T17:33:32.946Z,7.45
2017-12-29T17:35:59.766Z,5.22
2017-12-29T17:38:26.542Z,7.12
2017-12-29T17:40:53.328Z,9.77
2017-12-29T17:43:20.131Z,8.38
2017-12-29T17:45:46.897Z,8.67
2017-12-29T17:48:13.666Z,7.78
2017-12-29T17:50:40.481Z,6.40
2017-12-29T17:53:07.253Z,6.83
2017-12-29T17:55:34.027Z,5.87
2017-12-29T17:58:00.883Z,5.70
2017-12-29T18:00:27.666Z,7.22
2017-12-29T18:02:54.441Z,6.57
2017-12-29T18:05:21.254Z,7.87
2017-12-29T18:07:48.031Z,5.57
2017-12-29T18:10:14.815Z,6.15
2017-12-29T18:12:41.609Z,4.93
2017-12-29T18:15:08.385Z,5.23
2017-12-29T18:17:35.198Z,5.93
2017-12-29T18:20:02.011Z,7.82
2017-12-29T18:22:28.808Z,6.80
2017-12-29T18:24:55.570Z,4.87
2017-12-29T18:27:22.392Z,4.20
2017-12-29T18:29:50.167Z,4.10
2017-12-29T18:32:16.938Z,5.03
2017-12-29T18:34:43.745Z,5.12
2017-12-29T18:37:10.527Z,5.28
2017-12-29T18:39:37.299Z,3.95
2017-12-29T18:42:04.125Z,5.50
2017-12-29T18:44:30.994Z,4.50
2017-12-29T18:46:57.802Z,4.10
2017-12-29T18:49:24.614Z,4.07
2017-12-29T18:51:51.378Z,4.40
2017-12-29T18:54:19.050Z,4.00
2017-12-29T18:56:45.876Z,3.83
2017-12-29T18:59:12.679Z,3.72
2017-12-29T19:01:39.462Z,4.47
2017-12-29T19:04:06.306Z,5.10
2017-12-29T19:06:33.083Z,2.80
2017-12-29T19:08:59.861Z,3.90
2017-12-29T19:11:26.673Z,4.15
2017-12-29T19:13:53.470Z,3.70
2017-12-29T19:16:20.246Z,3.33
2017-12-29T19:18:47.050Z,2.87
2017-12-29T19:21:14.185Z,3.90
2017-12-29T19:23:40.957Z,3.60
2017-12-29T19:26:07.766Z,3.90
2017-12-29T19:28:34.537Z,3.28
2017-12-29T19:31:01.312Z,2.50
2017-12-29T19:33:28.115Z,3.37
2017-12-29T19:35:54.909Z,3.40
2017-12-29T19:38:21.680Z,2.80
2017-12-29T19:40:48.490Z,3.90
2017-12-29T19:43:15.263Z,3.83
2017-12-29T19:45:42.028Z,2.65
2017-12-29T19:48:08.913Z,2.40
2017-12-29T19:50:35.735Z,3.20
2017-12-29T19:53:02.499Z,4.50
2017-12-29T19:55:29.298Z,4.70
2017-12-29T19:57:56.065Z,3.47
2017-12-29T20:00:22.841Z,3.62
2017-12-29T20:02:49.665Z,3.62
2017-12-29T20:05:16.437Z,4.50
2017-12-29T20:07:43.203Z,3.37
2017-12-29T20:10:10.025Z,3.37
2017-12-29T20:12:36.800Z,2.78
2017-12-29T20:15:03.611Z,1.87
2017-12-29T20:17:30.455Z,3.90
2017-12-29T20:19:57.219Z,2.33
2017-12-29T20:22:23.989Z,3.13
2017-12-29T20:24:50.803Z,4.70
2017-12-29T20:27:17.575Z,2.55
2017-12-29T20:29:44.335Z,1.85
2017-12-29T20:32:11.154Z,2.55
2017-12-29T20:34:37.921Z,3.30
2017-12-29T20:37:04.682Z,3.27
2017-12-29T20:39:32.524Z,2.90
2017-12-29T20:41:59.297Z,3.67
2017-12-29T20:44:26.131Z,2.90
2017-12-29T20:46:52.952Z,3.25
2017-12-29T20:49:19.707Z,2.60
2017-12-29T20:51:46.531Z,3.83
2017-12-29T20:54:13.365Z,2.30
2017-12-29T20:56:40.154Z,2.80
2017-12-29T20:59:06.977Z,1.95
2017-12-29T21:01:33.776Z,3.47
2017-12-29T21:04:00.519Z,2.80
2017-12-29T21:06:27.279Z,1.90
2017-12-29T21:08:54.100Z,1.93
2017-12-29T21:11:20.880Z,1.97
2017-12-29T21:13:47.667Z,2.50
2017-12-29T21:16:14.495Z,3.53
2017-12-29T21:18:41.310Z,3.60
2017-12-29T21:21:08.417Z,2.90
2017-12-29T21:23:36.706Z,3.20
2017-12-29T21:26:03.471Z,3.50
2017-12-29T21:28:30.278Z,2.77
2017-12-29T21:30:57.071Z,2.67
2017-12-29T21:33:23.875Z,2.30
2017-12-29T21:35:50.622Z,2.20
2017-12-29T21:38:17.403Z,3.07
2017-12-29T21:40:44.207Z,3.28
2017-12-29T21:43:10.971Z,2.87
2017-12-29T21:45:37.762Z,2.67
2017-12-29T21:48:04.541Z,3.05
2017-12-29T21:50:31.301Z,1.97
2017-12-29T21:52:58.087Z,3.07
2017-12-29T21:55:25.216Z,2.40
2017-12-29T21:57:53.836Z,1.83
2017-12-29T22:00:20.672Z,2.75
2017-12-29T22:02:47.434Z,3.50
2017-12-29T22:05:14.191Z,2.83
2017-12-29T22:07:40.991Z,3.03
2017-12-29T22:10:07.773Z,3.23
2017-12-29T22:12:34.543Z,3.33
2017-12-29T22:15:01.342Z,1.90
2017-12-29T22:17:28.113Z,2.80
2017-12-29T22:19:54.886Z,3.05
2017-12-29T22:22:21.663Z,2.40
2017-12-29T22:24:48.443Z,3.10
2017-12-29T22:27:15.189Z,2.43
2017-12-29T22:29:41.970Z,3.10
2017-12-29T22:32:08.742Z,3.20
2017-12-29T22:34:35.530Z,2.50
2017-12-29T22:37:02.323Z,2.40
2017-12-29T22:39:29.129Z,2.60
2017-12-29T22:41:55.884Z,2.30
2017-12-29T22:44:22.703Z,3.22
2017-12-29T22:46:49.455Z,2.20
2017-12-29T22:49:16.244Z,2.50
2017-12-29T22:51:43.063Z,3.08
2017-12-29T22:54:09.865Z,2.80
2017-12-29T22:56:36.626Z,1.80
2017-12-29T22:59:03.430Z,2.53
2017-12-29T23:01:30.189Z,2.50
2017-12-29T23:03:56.953Z,2.50
2017-12-29T23:06:23.773Z,2.37
2017-12-29T23:08:50.527Z,3.07
2017-12-29T23:11:17.310Z,2.97
2017-12-29T23:13:44.092Z,2.77
2017-12-29T23:16:10.835Z,3.20
2017-12-29T23:18:37.618Z,2.70
2017-12-29T23:21:04.412Z,3.60
2017-12-29T23:23:31.160Z,3.43
2017-12-29T23:25:57.962Z,3.50
2017-12-29T23:28:24.742Z,2.50
2017-12-29T23:30:51.502Z,2.10
2017-12-29T23:33:18.258Z,3.23
2017-12-29T23:35:45.038Z,2.47
